Time;durP1;ratioP1;P1;durP2;ratioP2;P2;SDS_P1;SDS_P2;PMS_P1;PMS_P2;Temp;Humidity;BMP_temperature;BMP_pressure;BME280_temperature;BME280_humidity;BME280_pressure;Samples;Min_cycle;Max_cycle;Signal;HPM_P1;HPM_P2
2022/06/05 00:02:09;;;;;;;8.78;6.15;;;;;;;16.54;64.10;100665.62;1769883;79;27353;-66
2022/06/05 00:04:55;;;;;;;10.70;6.05;;;;;;;16.52;64.09;100678.82;1745745;81;25635;-64
2022/06/05 00:07:33;;;;;;;7.28;6.10;;;;;;;16.48;64.12;100675.19;1764767;81;25451;-64
2022/06/05 00:10:20;;;;;;;8.43;6.30;;;;;;;16.42;64.11;100681.42;1749538;81;25685;-66
2022/06/05 00:12:54;;;;;;;7.70;5.78;;;;;;;16.37;64.22;100678.91;1748751;81;25669;-65
2022/06/05 00:15:21;;;;;;;7.20;6.03;;;;;;;16.29;64.20;100677.06;1748200;81;27306;-65
2022/06/05 00:17:48;;;;;;;8.48;6.25;;;;;;;16.25;64.25;100674.22;1735315;82;25717;-64
2022/06/05 00:20:14;;;;;;;8.08;6.03;;;;;;;16.20;64.29;100673.07;1742031;82;25546;-64
2022/06/05 00:22:41;;;;;;;8.48;6.12;;;;;;;16.16;64.20;100666.70;1722580;81;25618;-64
2022/06/05 00:25:10;;;;;;;9.60;6.42;;;;;;;16.13;64.35;100663.28;1736622;82;25660;-67
2022/06/05 00:28:00;;;;;;;7.65;5.97;;;;;;;16.09;64.27;100671.92;1742118;82;27902;-67
2022/06/05 00:30:47;;;;;;;7.25;6.15;;;;;;;16.02;64.24;100679.84;1739437;81;25777;-66
2022/06/05 00:33:19;;;;;;;11.78;6.15;;;;;;;15.94;64.32;100674.72;1719564;81;25500;-69
2022/06/05 00:36:00;;;;;;;7.92;6.28;;;;;;;15.87;64.46;100682.65;1672558;85;25767;-69
2022/06/05 00:38:44;;;;;;;7.35;6.05;;;;;;;15.81;64.46;100686.13;1682728;83;25702;-67
2022/06/05 00:41:30;;;;;;;9.68;6.28;;;;;;;15.75;64.51;100691.58;1685402;83;27309;-65
2022/06/05 00:44:00;;;;;;;8.08;6.00;;;;;;;15.69;64.68;100682.75;1701742;83;25571;-68
2022/06/05 00:50:00;;;;;;;11.15;5.90;;;;;;;15.58;64.91;100682.94;1606059;86;26580;-66
2022/06/05 00:52:31;;;;;;;8.33;5.95;;;;;;;15.50;65.08;100685.17;1652403;86;25802;-68
2022/06/05 00:54:58;;;;;;;7.60;5.67;;;;;;;15.43;65.22;100682.97;1643762;86;27411;-68
2022/06/05 00:57:29;;;;;;;10.65;6.45;;;;;;;15.39;65.18;100682.59;1650369;86;25790;-68
2022/06/05 00:59:58;;;;;;;8.33;6.42;;;;;;;15.36;65.26;100679.16;1650664;86;25795;-72
2022/06/05 01:02:24;;;;;;;6.22;5.72;;;;;;;15.30;65.27;100683.45;1649811;86;25722;-67
2022/06/05 01:04:51;;;;;;;8.65;5.65;;;;;;;15.26;65.40;100683.89;1651014;86;25896;-67
2022/06/05 01:07:20;;;;;;;6.35;5.62;;;;;;;15.23;65.58;100681.82;1645774;86;27333;-68
2022/06/05 01:09:49;;;;;;;7.20;5.78;;;;;;;15.17;65.50;100672.27;1652015;86;33181;-68
2022/06/05 01:12:42;;;;;;;6.80;6.17;;;;;;;15.11;65.43;100669.48;1652166;86;25670;-66
2022/06/05 01:15:31;;;;;;;7.08;6.15;;;;;;;15.06;65.72;100666.95;1648263;86;25614;-68
2022/06/05 01:18:09;;;;;;;7.78;6.40;;;;;;;15.00;65.83;100670.44;1670641;84;25716;-68
2022/06/05 01:20:59;;;;;;;8.95;6.83;;;;;;;14.94;65.89;100673.11;1691185;84;27330;-67
2022/06/05 01:23:53;;;;;;;8.78;6.28;;;;;;;14.86;66.08;100676.09;1680039;85;25676;-66
2022/06/05 01:26:31;;;;;;;8.38;6.20;;;;;;;14.81;66.18;100674.92;1686363;83;25680;-67
2022/06/05 01:29:07;;;;;;;7.08;6.33;;;;;;;14.75;66.38;100670.81;1662965;86;25685;-66
2022/06/05 01:31:54;;;;;;;6.92;6.20;;;;;;;14.69;66.48;100670.20;1661726;85;25708;-66
2022/06/05 01:34:49;;;;;;;8.43;6.25;;;;;;;14.64;66.47;100673.11;1678586;85;27506;-66
2022/06/05 01:37:29;;;;;;;7.97;6.22;;;;;;;14.59;66.55;100674.63;1666218;84;25916;-66
2022/06/05 01:40:10;;;;;;;11.28;6.35;;;;;;;14.53;66.80;100682.72;1681592;84;26289;-67
2022/06/05 01:42:58;;;;;;;8.73;6.78;;;;;;;14.48;66.77;100675.52;1679648;84;25844;-67
2022/06/05 01:45:44;;;;;;;9.13;6.50;;;;;;;14.45;66.86;100676.74;1669832;82;25520;-67
2022/06/05 01:48:18;;;;;;;7.78;6.20;;;;;;;14.42;66.97;100672.77;1701305;84;29451;-67
2022/06/05 01:50:49;;;;;;;7.95;6.65;;;;;;;14.38;66.93;100679.96;1728320;82;25759;-66
2022/06/05 01:53:35;;;;;;;7.65;6.28;;;;;;;14.34;67.05;100680.39;1709382;83;25686;-68
2022/06/05 01:56:16;;;;;;;9.93;7.87;;;;;;;14.32;67.19;100692.13;1697274;84;25817;-67
2022/06/05 01:58:54;;;;;;;9.13;6.55;;;;;;;14.28;67.29;100693.92;1723463;82;25422;-68
2022/06/05 02:01:24;;;;;;;8.48;6.58;;;;;;;14.24;67.29;100694.34;1718497;82;27406;-66
2022/06/05 02:03:56;;;;;;;9.00;7.20;;;;;;;14.19;67.47;100701.53;1732346;82;25442;-66
2022/06/05 02:06:28;;;;;;;7.28;6.25;;;;;;;14.16;67.52;100698.66;1732331;82;25453;-66
2022/06/05 02:08:59;;;;;;;7.83;6.97;;;;;;;14.13;67.61;100708.82;1729962;82;25718;-66
2022/06/05 02:11:29;;;;;;;9.28;6.72;;;;;;;14.08;67.61;100705.73;1735890;82;25633;-65
2022/06/05 02:14:02;;;;;;;10.35;6.87;;;;;;;14.08;67.58;100706.27;1709737;82;27533;-65
2022/06/05 02:16:32;;;;;;;9.28;6.87;;;;;;;14.05;67.63;100705.01;1735280;82;25682;-66
2022/06/05 02:19:02;;;;;;;8.60;6.42;;;;;;;14.03;67.75;100707.26;1733747;82;25627;-66
2022/06/05 02:21:29;;;;;;;6.90;6.10;;;;;;;13.99;67.78;100704.36;1737846;82;25705;-66
2022/06/05 02:23:57;;;;;;;7.90;6.55;;;;;;;13.97;67.87;100709.32;1735538;82;25652;-66
2022/06/05 02:26:26;;;;;;;12.00;6.83;;;;;;;13.95;67.91;100716.22;1736299;82;28105;-66
2022/06/05 02:28:52;;;;;;;8.78;6.20;;;;;;;13.93;68.07;100720.62;1737305;82;25642;-66
2022/06/05 02:31:52;;;;;;;8.48;7.12;;;;;;;13.90;68.02;100729.41;1737070;82;25590;-67
2022/06/05 02:34:50;;;;;;;8.78;6.45;;;;;;;13.87;68.00;100728.69;1733470;82;25699;-68
2022/06/05 02:37:24;;;;;;;9.90;6.15;;;;;;;13.82;67.96;100723.41;1738151;82;25493;-67
2022/06/05 02:40:24;;;;;;;8.45;6.92;;;;;;;13.81;68.03;100733.49;1737904;82;26875;-67
2022/06/05 02:43:08;;;;;;;9.95;6.12;;;;;;;13.81;68.10;100735.42;1737679;82;26433;-66
2022/06/05 02:46:00;;;;;;;11.43;7.03;;;;;;;13.78;68.05;100726.54;1704214;84;25791;-66
2022/06/05 02:48:56;;;;;;;8.65;6.53;;;;;;;13.77;68.00;100723.56;1716930;82;25686;-65
2022/06/05 02:51:30;;;;;;;7.25;6.50;;;;;;;13.75;68.02;100719.81;1701417;84;25418;-68
2022/06/05 02:53:59;;;;;;;8.05;6.00;;;;;;;13.73;67.97;100715.83;1718104;83;28071;-67
2022/06/05 02:56:29;;;;;;;11.05;6.30;;;;;;;13.74;67.99;100721.48;1753142;81;25400;-67
2022/06/05 02:58:59;;;;;;;7.05;6.28;;;;;;;13.72;67.95;100724.52;1761736;81;25477;-68
2022/06/05 03:04:10;;;;;;;8.88;6.58;;;;;;;13.72;67.84;100739.47;1744101;81;25462;-67
2022/06/05 03:06:40;;;;;;;8.30;6.90;;;;;;;13.71;67.91;100744.69;1769678;81;27339;-68
2022/06/05 03:09:07;;;;;;;;;;;;;;;13.73;67.99;100747.88;1772614;81;25394;-65
2022/06/05 03:11:34;;;;;;;6.70;6.00;;;;;;;13.76;68.01;100750.53;1770288;81;25934;-68
2022/06/05 03:14:00;;;;;;;9.38;7.47;;;;;;;13.77;67.90;100756.19;1758845;81;25654;-68
2022/06/05 03:16:28;;;;;;;8.20;6.67;;;;;;;13.78;67.83;100755.09;1756743;81;25872;-68
2022/06/05 03:18:55;;;;;;;8.95;6.47;;;;;;;13.80;67.79;100752.27;1747700;81;27378;-68
2022/06/05 03:21:21;;;;;;;7.50;5.75;;;;;;;13.82;67.67;100752.78;1734421;82;25725;-65
2022/06/05 03:23:47;;;;;;;11.68;6.67;;;;;;;13.85;67.77;100757.33;1734755;82;25708;-66
2022/06/05 03:26:13;;;;;;;8.85;5.80;;;;;;;13.88;67.64;100766.22;1727675;82;25709;-66
2022/06/05 03:28:40;;;;;;;7.00;6.17;;;;;;;13.89;67.58;100771.88;1729422;82;25474;-66
2022/06/05 03:31:09;;;;;;;8.48;6.28;;;;;;;13.91;67.54;100772.34;1719272;82;26966;-68
2022/06/05 03:33:37;;;;;;;8.25;6.25;;;;;;;13.93;67.47;100778.30;1702666;84;25616;-65
2022/06/05 03:36:13;;;;;;;9.10;6.78;;;;;;;13.93;67.42;100782.37;1721830;82;25649;-66
2022/06/05 03:38:40;;;;;;;6.75;6.00;;;;;;;13.93;67.28;100774.21;1692650;84;25708;-66
2022/06/05 03:41:08;;;;;;;8.48;6.67;;;;;;;13.92;67.21;100779.41;1744395;81;25391;-66
2022/06/05 03:43:37;;;;;;;8.33;6.92;;;;;;;13.94;67.22;100778.52;1708395;82;26875;-66
2022/06/05 03:46:08;;;;;;;7.70;6.90;;;;;;;13.93;67.11;100781.02;1735407;82;25590;-66
2022/06/05 03:48:35;;;;;;;8.08;6.37;;;;;;;13.93;67.12;100774.21;1724293;82;25706;-66
2022/06/05 03:51:16;;;;;;;10.75;6.90;;;;;;;13.92;67.07;100780.19;1732918;82;25703;-66
2022/06/05 03:53:42;;;;;;;8.23;6.58;;;;;;;13.93;67.07;100781.80;1710917;82;25659;-66
2022/06/05 03:56:13;;;;;;;8.98;7.25;;;;;;;13.93;67.15;100779.08;1733601;82;27334;-67
2022/06/05 03:58:39;;;;;;;9.45;8.23;;;;;;;13.95;67.18;100782.84;1703910;84;25946;-65
2022/06/05 04:01:10;;;;;;;9.48;7.55;;;;;;;13.95;67.14;100784.20;1708581;82;25694;-67
2022/06/05 04:03:38;;;;;;;8.78;6.78;;;;;;;13.96;67.06;100789.87;1709484;83;25654;-66
2022/06/05 04:06:10;;;;;;;8.33;7.20;;;;;;;13.96;67.09;100789.33;1759178;81;25706;-66
2022/06/05 04:08:38;;;;;;;11.03;7.53;;;;;;;13.96;67.14;100786.61;1721287;82;27586;-67
2022/06/05 04:11:11;;;;;;;9.98;7.33;;;;;;;13.98;67.23;100787.66;1718549;82;25688;-66
2022/06/05 04:13:38;;;;;;;10.18;7.05;;;;;;;14.01;67.22;100791.89;1709423;82;25584;-66
2022/06/05 04:16:17;;;;;;;8.25;7.17;;;;;;;14.04;67.22;100792.36;1725965;82;25699;-66
2022/06/05 04:18:45;;;;;;;8.38;7.22;;;;;;;14.04;67.30;100780.91;1729938;82;25624;-66
2022/06/05 04:21:19;;;;;;;12.95;6.85;;;;;;;14.09;67.39;100778.03;1739351;82;27324;-66
2022/06/05 04:23:46;;;;;;;12.35;7.37;;;;;;;14.11;67.36;100778.50;1739228;82;25422;-66
2022/06/05 04:26:17;;;;;;;18.67;7.85;;;;;;;14.14;67.33;100783.31;1738499;81;25485;-66
2022/06/05 04:28:44;;;;;;;10.63;6.72;;;;;;;14.18;67.24;100781.56;1738012;82;25901;-66
2022/06/05 04:31:25;;;;;;;11.88;6.83;;;;;;;14.23;67.27;100785.23;1739513;82;25405;-66
2022/06/05 04:33:55;;;;;;;9.55;7.20;;;;;;;14.25;66.95;100782.98;1739564;82;27330;-67
2022/06/05 04:36:22;;;;;;;10.40;7.37;;;;;;;14.27;66.88;100788.89;1738359;82;26273;-66
2022/06/05 04:38:49;;;;;;;8.70;6.00;;;;;;;14.29;66.71;100785.31;1738785;82;25651;-66
2022/06/05 04:41:18;;;;;;;8.95;7.12;;;;;;;14.31;66.50;100789.87;1739391;82;25685;-66
2022/06/05 04:43:49;;;;;;;9.13;7.05;;;;;;;14.33;66.40;100791.13;1739514;82;25785;-66
2022/06/05 04:46:19;;;;;;;9.65;6.80;;;;;;;14.36;66.30;100801.38;1739362;82;27604;-67
2022/06/05 04:48:46;;;;;;;9.83;7.05;;;;;;;14.38;66.30;100792.89;1738295;82;25600;-66
2022/06/05 04:51:13;;;;;;;8.65;7.00;;;;;;;14.42;66.13;100800.67;1739326;82;25486;-66
2022/06/05 04:53:41;;;;;;;9.65;7.08;;;;;;;14.46;66.07;100800.83;1739338;82;25599;-67
2022/06/05 04:56:12;;;;;;;8.48;6.80;;;;;;;14.48;65.92;100801.30;1739353;81;25695;-67
2022/06/05 04:58:39;;;;;;;9.13;6.62;;;;;;;14.52;65.70;100807.68;1739314;82;28100;-67
2022/06/05 05:01:23;;;;;;;7.62;6.40;;;;;;;14.55;65.60;100804.31;1739291;82;25419;-67
2022/06/05 05:03:54;;;;;;;7.47;6.75;;;;;;;14.62;65.60;100808.73;1738504;82;25740;-67
2022/06/05 05:06:21;;;;;;;9.83;6.35;;;;;;;14.69;65.55;100808.23;1737107;82;25692;-67
2022/06/05 05:08:47;;;;;;;9.68;6.45;;;;;;;14.77;65.55;100812.08;1739277;82;25718;-67
2022/06/05 05:11:15;;;;;;;9.68;7.08;;;;;;;14.83;65.31;100809.40;1737611;81;27320;-66
2022/06/05 05:13:41;;;;;;;7.28;6.22;;;;;;;14.91;65.44;100809.40;1739117;82;25454;-66
2022/06/05 05:16:08;;;;;;;7.65;5.80;;;;;;;14.99;64.82;100814.56;1739667;82;25414;-66
2022/06/05 05:18:35;;;;;;;10.00;6.58;;;;;;;15.06;64.74;100816.21;1738333;82;26391;-66
2022/06/05 05:21:15;;;;;;;10.08;7.35;;;;;;;15.13;64.49;100824.67;1737202;82;25420;-66
2022/06/05 05:23:43;;;;;;;8.30;6.70;;;;;;;15.20;64.11;100829.62;1717063;82;28120;-66
2022/06/05 05:26:18;;;;;;;6.90;6.20;;;;;;;15.29;64.10;100825.52;1737110;82;25481;-66
2022/06/05 05:28:46;;;;;;;8.90;6.08;;;;;;;15.40;63.78;100823.21;1737654;82;25759;-66
2022/06/05 05:31:29;;;;;;;6.78;5.67;;;;;;;15.50;63.46;100816.02;1739303;82;25765;-68
2022/06/05 05:33:56;;;;;;;11.00;5.83;;;;;;;15.60;63.30;100814.28;1736495;82;25509;-68
2022/06/05 05:36:25;;;;;;;8.30;5.97;;;;;;;15.72;62.88;100819.59;1738318;82;27303;-67
2022/06/05 05:44:25;;;;;;;7.83;6.05;;;;;;;16.12;62.45;100815.85;1737163;82;25677;-68
2022/06/05 05:46:52;;;;;;;6.62;5.80;;;;;;;16.32;62.20;100822.44;1738681;82;25567;-66
2022/06/05 05:49:23;;;;;;;8.68;6.22;;;;;;;16.48;61.97;100823.17;1739417;82;27323;-67
2022/06/05 05:51:49;;;;;;;8.40;5.75;;;;;;;16.65;61.60;100817.53;1738864;82;25676;-66
2022/06/05 05:54:16;;;;;;;21.05;14.65;;;;;;;16.81;60.89;100814.97;1737433;82;25656;-66
2022/06/05 05:56:43;;;;;;;6.47;5.58;;;;;;;16.96;60.57;100812.98;1738549;82;25692;-66
2022/06/05 05:59:09;;;;;;;8.90;5.25;;;;;;;17.11;59.99;100811.52;1739411;82;25573;-66
2022/06/05 06:01:36;;;;;;;5.83;5.22;;;;;;;17.29;59.63;100818.12;1739591;82;27994;-66
2022/06/05 06:04:05;;;;;;;5.15;4.62;;;;;;;17.47;59.17;100813.20;1739509;82;25681;-66
2022/06/05 06:06:36;;;;;;;9.93;6.60;;;;;;;17.61;58.58;100812.30;1739711;82;25569;-66
2022/06/05 06:09:04;;;;;;;5.47;4.90;;;;;;;17.73;57.65;100805.44;1740065;82;26478;-67
2022/06/05 06:11:31;;;;;;;5.97;5.00;;;;;;;18.15;57.34;100833.08;1740016;82;25227;-66
2022/06/05 06:13:58;;;;;;;6.15;4.70;;;;;;;18.15;57.34;100833.08;1738958;82;27958;-67
2022/06/05 06:16:26;;;;;;;6.17;4.70;;;;;;;18.23;56.88;100810.22;1738107;82;27281;-67
2022/06/05 06:18:54;;;;;;;4.90;4.40;;;;;;;18.46;56.64;100814.58;1717105;82;25596;-67
2022/06/05 06:21:21;;;;;;;5.15;4.30;;;;;;;18.66;55.76;100814.69;1708983;83;25827;-67
2022/06/05 06:23:48;;;;;;;5.45;4.17;;;;;;;18.87;55.20;100813.72;1734358;82;25635;-67
2022/06/05 06:26:14;;;;;;;4.72;4.00;;;;;;;19.06;54.38;100817.91;1725548;82;27317;-67
2022/06/05 06:28:41;;;;;;;7.92;4.10;;;;;;;19.22;54.06;100812.41;1700835;83;25822;-66
2022/06/05 06:31:12;;;;;;;5.28;4.78;;;;;;;19.43;53.38;100811.31;1711275;83;25693;-66
2022/06/05 06:33:39;;;;;;;7.87;4.60;;;;;;;19.64;53.59;100820.05;1718958;82;25647;-64
2022/06/05 06:36:11;;;;;;;3.98;3.60;;;;;;;19.84;53.43;100811.89;1708382;83;26113;-65
2022/06/05 06:38:38;;;;;;;3.92;3.55;;;;;;;20.02;51.52;100817.74;1711181;83;27316;-65
2022/06/05 06:41:09;;;;;;;3.90;3.47;;;;;;;20.15;51.02;100815.86;1736301;82;25551;-65
2022/06/05 06:43:36;;;;;;;4.00;3.60;;;;;;;20.33;50.84;100817.60;1742431;81;25678;-66
2022/06/05 06:46:04;;;;;;;4.03;3.67;;;;;;;20.50;50.04;100812.83;1731123;81;26298;-66
2022/06/05 06:48:31;;;;;;;6.45;4.00;;;;;;;20.63;49.76;100806.59;1698494;83;25815;-66
2022/06/05 06:51:00;;;;;;;6.70;5.80;;;;;;;20.80;49.55;100813.57;1687786;83;27355;-66
2022/06/05 06:53:27;;;;;;;5.50;4.37;;;;;;;21.00;49.74;100814.31;1708890;83;25709;-66
2022/06/05 06:55:55;;;;;;;4.40;4.00;;;;;;;21.20;49.08;100816.41;1732528;82;25632;-66
2022/06/05 06:58:22;;;;;;;4.75;3.90;;;;;;;21.40;48.71;100820.66;1726734;82;26124;-66
2022/06/05 07:00:48;;;;;;;4.75;3.80;;;;;;;21.58;47.93;100816.80;1721151;81;25760;-66
2022/06/05 07:03:15;;;;;;;6.10;3.95;;;;;;;21.72;47.75;100818.95;1736798;82;28061;-66
2022/06/05 07:05:41;;;;;;;4.60;4.20;;;;;;;21.93;47.58;100821.22;1688565;83;25662;-65
2022/06/05 07:08:09;;;;;;;6.70;4.00;;;;;;;22.14;47.03;100817.93;1699357;83;25712;-66
2022/06/05 07:10:38;;;;;;;6.05;3.92;;;;;;;22.32;46.01;100812.67;1730485;82;25840;-64
2022/06/05 07:13:05;;;;;;;4.53;3.85;;;;;;;22.48;45.55;100811.06;1718461;81;25673;-66
2022/06/05 07:15:35;;;;;;;4.25;3.52;;;;;;;22.70;44.68;100812.66;1737205;82;27272;-65
2022/06/05 07:18:05;;;;;;;3.92;3.62;;;;;;;22.88;45.04;100809.48;1692748;83;25706;-65
2022/06/05 07:20:38;;;;;;;5.95;3.22;;;;;;;23.06;44.45;100813.01;1709348;82;25478;-67
2022/06/05 07:23:06;;;;;;;3.92;3.62;;;;;;;23.25;43.94;100814.13;1764898;81;26386;-65
2022/06/05 07:25:34;;;;;;;3.70;3.40;;;;;;;23.41;43.73;100806.96;1770624;81;25438;-66
2022/06/05 07:28:01;;;;;;;3.92;3.52;;;;;;;23.59;43.06;100812.58;1759939;81;27320;-66
2022/06/05 07:30:28;;;;;;;4.42;3.60;;;;;;;23.74;43.16;100810.70;1755324;81;25721;-66
2022/06/05 07:32:54;;;;;;;4.80;3.80;;;;;;;23.99;43.37;100809.47;1746972;81;25649;-66
2022/06/05 07:35:21;;;;;;;3.80;3.50;;;;;;;24.26;42.68;100803.62;1764073;81;26337;-66
2022/06/05 07:37:47;;;;;;;6.62;3.67;;;;;;;24.50;42.46;100799.36;1712750;82;25442;-66
2022/06/05 07:40:16;;;;;;;9.90;3.77;;;;;;;24.74;41.61;100803.94;1727439;82;29516;-66
2022/06/05 07:42:44;;;;;;;4.83;3.87;;;;;;;24.95;41.55;100801.19;1730210;82;25519;-66
2022/06/05 07:45:15;;;;;;;4.33;3.67;;;;;;;25.18;40.59;100793.06;1719139;82;25814;-66
2022/06/05 07:47:43;;;;;;;3.40;3.10;;;;;;;25.38;40.83;100800.98;1728734;82;26252;-66
2022/06/05 07:50:12;;;;;;;3.85;3.35;;;;;;;25.66;40.31;100809.23;1725196;82;25656;-65
2022/06/05 07:55:24;;;;;;;5.45;3.47;;;;;;;25.95;39.42;100805.02;1726734;82;25706;-66
2022/06/05 07:57:50;;;;;;;3.98;3.08;;;;;;;26.19;38.68;100803.92;1733537;82;25710;-67
2022/06/05 08:00:17;;;;;;;6.35;3.02;;;;;;;26.38;38.39;100807.56;1733394;82;25787;-67
2022/06/05 08:02:43;;;;;;;4.37;3.20;;;;;;;26.52;38.08;100808.06;1733103;82;25722;-66
2022/06/05 08:05:10;;;;;;;4.28;3.00;;;;;;;26.68;37.41;100800.67;1733894;82;28183;-66
2022/06/05 08:07:37;;;;;;;4.17;3.22;;;;;;;26.91;37.91;100802.86;1732932;82;25650;-67
2022/06/05 08:10:06;;;;;;;3.47;3.20;;;;;;;27.21;38.04;100805.58;1734596;82;25653;-67
2022/06/05 08:12:35;;;;;;;4.33;3.37;;;;;;;27.48;37.02;100802.96;1731074;82;25975;-66
2022/06/05 08:15:08;;;;;;;4.58;3.27;;;;;;;27.63;36.66;100796.63;1736282;80;25711;-66
2022/06/05 08:17:36;;;;;;;3.22;2.92;;;;;;;27.83;36.02;100800.96;1702419;82;27268;-67
2022/06/05 08:20:07;;;;;;;3.30;3.00;;;;;;;27.92;35.79;100794.92;1766027;79;25796;-66
2022/06/05 08:22:34;;;;;;;4.75;3.17;;;;;;;28.02;35.90;100796.78;1747063;81;25815;-66
2022/06/05 08:25:01;;;;;;;4.42;3.12;;;;;;;28.16;35.21;100793.63;1723550;83;26153;-65
2022/06/05 08:27:28;;;;;;;4.62;3.42;;;;;;;28.38;35.62;100789.94;1708314;82;25617;-65
2022/06/05 08:29:56;;;;;;;4.55;3.20;;;;;;;28.72;35.39;100798.19;1704284;83;26825;-67
2022/06/05 08:32:25;;;;;;;10.48;8.85;;;;;;;28.99;34.85;100793.95;1694079;84;25866;-67
2022/06/05 08:34:53;;;;;;;5.00;3.60;;;;;;;29.25;34.70;100787.37;1709263;83;25735;-67
2022/06/05 08:43:53;;;;;;;4.03;2.95;;;;;;;29.78;33.22;100791.16;1705501;83;27493;-68
2022/06/05 08:46:28;;;;;;;5.75;3.08;;;;;;;30.05;32.94;100789.41;1708180;83;25827;-67
2022/06/05 08:49:02;;;;;;;3.52;3.22;;;;;;;30.21;32.42;100792.86;1705817;84;25708;-66
2022/06/05 08:51:36;;;;;;;4.72;3.08;;;;;;;30.39;31.64;100792.47;1705399;84;26583;-65
2022/06/05 08:54:08;;;;;;;2.62;2.47;;;;;;;30.51;31.57;100788.39;1705088;84;25810;-65
2022/06/05 08:56:46;;;;;;;3.17;2.80;;;;;;;30.69;31.67;100789.96;1705445;84;27518;-65
2022/06/05 08:59:38;;;;;;;3.22;2.58;;;;;;;30.89;31.45;100787.08;1704395;82;26100;-66
2022/06/05 09:02:19;;;;;;;3.30;2.90;;;;;;;31.09;30.81;100786.97;1699464;84;25733;-66
2022/06/05 09:04:51;;;;;;;3.62;3.17;;;;;;;31.35;30.45;100788.51;1705376;84;25845;-66
2022/06/05 09:07:32;;;;;;;3.83;2.40;;;;;;;31.42;29.72;100784.11;1674531;85;26021;-67
2022/06/05 09:10:34;;;;;;;6.28;2.80;;;;;;;31.28;29.15;100786.69;1673336;85;27351;-68
2022/06/05 09:13:05;;;;;;;2.25;2.10;;;;;;;31.41;29.78;100785.33;1653849;85;25787;-67
2022/06/05 09:15:45;;;;;;;2.17;2.00;;;;;;;31.68;29.33;100794.78;1674688;85;25780;-67
2022/06/05 09:18:19;;;;;;;5.12;4.62;;;;;;;31.87;28.79;100788.83;1674403;85;25835;-68
2022/06/05 09:20:55;;;;;;;6.72;2.90;;;;;;;31.82;28.51;100788.79;1700698;83;25434;-68
2022/06/05 09:23:45;;;;;;;3.10;2.62;;;;;;;31.88;27.88;100779.84;1708957;83;27392;-68
2022/06/05 09:26:28;;;;;;;2.60;2.40;;;;;;;31.89;28.26;100784.20;1724529;82;25770;-67
2022/06/05 09:29:15;;;;;;;3.77;2.67;;;;;;;31.95;27.96;100780.41;1741363;82;25736;-67
2022/06/05 09:32:07;;;;;;;2.67;2.20;;;;;;;32.08;27.92;100781.86;1718845;82;25785;-67
2022/06/05 09:34:42;;;;;;;2.33;2.12;;;;;;;32.15;27.13;100779.46;1741489;82;25674;-67
2022/06/05 09:37:19;;;;;;;2.85;2.42;;;;;;;32.08;26.94;100783.85;1740123;82;27527;-68
2022/06/05 09:39:53;;;;;;;6.05;2.35;;;;;;;32.02;26.90;100775.21;1740576;82;25698;-69
2022/06/05 09:42:44;;;;;;;3.47;1.92;;;;;;;32.01;26.84;100777.23;1739730;82;25702;-66
2022/06/05 09:45:37;;;;;;;2.37;2.12;;;;;;;32.16;26.43;100776.22;1772335;80;25712;-67
2022/06/05 09:48:35;;;;;;;3.55;2.10;;;;;;;32.31;26.59;100773.73;1773122;80;25709;-67
2022/06/05 09:51:07;;;;;;;4.80;2.62;;;;;;;32.31;26.59;100773.73;1767812;79;28009;-67
2022/06/05 09:53:57;;;;;;;2.25;2.05;;;;;;;32.36;26.39;100773.80;1764322;79;26410;-68
2022/06/05 09:59:54;;;;;;;3.93;2.10;;;;;;;32.37;25.88;100772.58;1780924;79;25631;-66
2022/06/05 10:02:23;;;;;;;2.15;1.95;;;;;;;32.49;25.81;100769.60;1783969;79;25723;-67
2022/06/05 10:04:50;;;;;;;2.17;2.02;;;;;;;32.68;25.42;100773.41;1778163;79;27370;-67
2022/06/05 10:07:37;;;;;;;3.30;2.42;;;;;;;32.81;25.75;100767.76;1774448;79;26583;-68
2022/06/05 10:10:17;;;;;;;2.75;2.47;;;;;;;32.89;25.30;100768.46;1773080;79;25792;-69
2022/06/05 10:12:55;;;;;;;2.50;2.22;;;;;;;32.91;25.26;100775.81;1771702;79;25725;-67
2022/06/05 10:15:32;;;;;;;1.92;1.72;;;;;;;32.96;25.34;100773.03;1768357;79;25720;-66
2022/06/05 10:18:03;;;;;;;3.10;2.80;;;;;;;32.95;24.63;100782.69;1777202;79;28034;-68
2022/06/05 10:20:44;;;;;;;4.08;3.50;;;;;;;32.95;24.63;100782.69;1781617;79;25783;-68
2022/06/05 10:23:27;;;;;;;3.12;1.90;;;;;;;32.89;24.67;100771.89;1752456;80;25721;-67
2022/06/05 10:26:17;;;;;;;3.10;2.17;;;;;;;32.95;24.83;100764.48;1731004;82;25823;-67
2022/06/05 10:28:46;;;;;;;5.03;2.50;;;;;;;33.05;25.20;100760.52;1742023;82;25643;-67
2022/06/05 10:31:23;;;;;;;2.20;2.10;;;;;;;33.18;24.58;100765.32;1742039;82;28035;-67
2022/06/05 10:34:20;;;;;;;3.07;1.80;;;;;;;33.18;24.58;100765.32;1742321;82;26258;-67
2022/06/05 10:37:25;;;;;;;3.12;2.40;;;;;;;33.27;24.67;100761.98;1714668;82;25682;-67
2022/06/05 10:40:21;;;;;;;4.75;2.30;;;;;;;33.19;24.35;100774.67;1741960;82;26515;-66
2022/06/05 10:43:05;;;;;;;4.10;2.20;;;;;;;33.20;23.74;100795.84;1729686;81;25603;-67
2022/06/05 10:45:41;;;;;;;3.52;2.40;;;;;;;33.25;24.26;100773.47;1723745;83;28196;-66
2022/06/05 10:48:43;;;;;;;2.85;2.00;;;;;;;33.54;24.55;100768.23;1723598;83;25415;-67
2022/06/05 10:51:32;;;;;;;2.30;1.90;;;;;;;33.64;24.48;100774.83;1723819;82;25727;-69
2022/06/05 10:54:37;;;;;;;3.15;2.25;;;;;;;33.63;23.40;100769.08;1723794;82;26330;-65
2022/06/05 10:57:21;;;;;;;3.05;2.30;;;;;;;33.74;23.51;100764.48;1723855;82;25722;-68
2022/06/05 11:00:05;;;;;;;6.50;3.92;;;;;;;33.89;23.99;100765.36;1723406;83;27671;-69
2022/06/05 11:03:13;;;;;;;1.82;1.72;;;;;;;34.03;24.22;100768.37;1723853;83;25679;-66
2022/06/05 11:06:35;;;;;;;3.00;2.10;;;;;;;34.13;23.30;100755.16;1724100;82;25612;-66
2022/06/05 11:09:42;;;;;;;2.02;1.82;;;;;;;34.11;23.09;100760.46;1723927;82;25746;-67
2022/06/05 11:15:25;;;;;;;2.00;1.70;;;;;;;34.15;22.38;100761.72;1723928;83;27395;-67
2022/06/05 11:18:09;;;;;;;2.10;1.90;;;;;;;34.08;22.66;100753.59;1722417;83;25679;-67
2022/06/05 11:20:40;;;;;;;2.00;1.82;;;;;;;34.14;22.20;100753.93;1723513;83;25630;-67
2022/06/05 11:23:19;;;;;;;2.12;1.95;;;;;;;34.14;22.46;100744.71;1723890;82;25727;-66
2022/06/05 11:26:16;;;;;;;1.90;1.80;;;;;;;34.04;22.06;100752.33;1724020;83;25288;-67
2022/06/05 11:29:09;;;;;;;8.08;3.05;;;;;;;34.10;22.25;100744.08;1723975;83;27340;-67
2022/06/05 11:31:47;;;;;;;4.87;2.20;;;;;;;34.18;22.81;100737.72;1723900;83;25620;-69
2022/06/05 11:34:25;;;;;;;3.37;2.02;;;;;;;34.34;22.50;100738.73;1723928;82;25657;-68
2022/06/05 11:36:55;;;;;;;3.30;3.00;;;;;;;34.31;22.02;100734.03;1724171;83;25700;-66
2022/06/05 11:39:52;;;;;;;2.80;1.70;;;;;;;34.30;21.64;100727.65;1724007;83;25679;-67
2022/06/05 11:42:30;;;;;;;4.05;1.82;;;;;;;34.26;21.67;100721.41;1728451;82;27332;-67
2022/06/05 11:45:18;;;;;;;3.08;2.20;;;;;;;34.26;22.14;100726.23;1733795;82;25797;-68
2022/06/05 11:47:51;;;;;;;;;;;;;;;34.23;22.36;100729.34;1736481;82;25685;-66
2022/06/05 11:50:56;;;;;;;3.58;2.20;;;;;;;34.36;22.31;100722.20;1732298;82;26264;-70
2022/06/05 11:54:12;;;;;;;3.08;2.00;;;;;;;34.54;22.07;100724.27;1733710;82;25438;-69
2022/06/05 11:57:18;;;;;;;2.67;2.00;;;;;;;34.71;21.80;100721.35;1702506;82;27348;-66
2022/06/05 11:59:49;;;;;;;2.50;2.05;;;;;;;34.79;21.36;100719.03;1733772;82;25710;-67
2022/06/05 12:02:56;;;;;;;2.40;2.20;;;;;;;34.66;20.82;100714.92;1733787;82;25766;-66
2022/06/05 12:05:33;;;;;;;1.85;1.70;;;;;;;34.52;20.87;100703.67;1733706;82;25799;-66
2022/06/05 12:08:17;;;;;;;1.98;1.80;;;;;;;34.38;20.45;100712.70;1733693;82;25654;-66
2022/06/05 12:11:09;;;;;;;10.45;2.00;;;;;;;34.26;20.63;100705.97;1733788;82;28026;-68
2022/06/05 12:14:11;;;;;;;4.10;2.08;;;;;;;34.31;20.90;100697.54;1730691;82;25848;-67
2022/06/05 12:16:50;;;;;;;3.92;2.00;;;;;;;34.32;20.77;100700.52;1733796;82;25743;-67
2022/06/05 12:19:55;;;;;;;2.98;2.67;;;;;;;34.23;21.40;100696.44;1733597;82;25643;-66
2022/06/05 12:22:30;;;;;;;4.15;2.25;;;;;;;34.31;21.64;100693.33;1733676;82;25838;-67
2022/06/05 12:25:23;;;;;;;3.55;2.33;;;;;;;34.40;21.43;100689.92;1732384;82;27403;-68
2022/06/05 12:28:28;;;;;;;3.17;2.00;;;;;;;34.46;21.76;100687.27;1733646;82;25627;-65
2022/06/05 12:34:18;;;;;;;3.42;2.12;;;;;;;34.20;21.15;100682.55;1653061;86;25677;-68